Time;durP1;ratioP1;P1;durP2;ratioP2;P2;SDS_P1;SDS_P2;PMS_P1;PMS_P2;Temp;Humidity;BMP_temperature;BMP_pressure;BME280_temperature;BME280_humidity;BME280_pressure;Samples;Min_cycle;Max_cycle;Signal;HPM_P1;HPM_P2
2022/11/07 18:10:10;;;;;;;10.37;5.90;;;20.70;59.50;;;;;;6135200;22;2018898;-85
2022/11/07 18:12:45;;;;;;;11.30;5.53;;;20.70;59.60;;;;;;6213277;23;20162;-86
2022/11/07 18:15:11;;;;;;;12.30;5.00;;;20.70;59.60;;;;;;6213096;23;20391;-85
2022/11/07 18:17:38;;;;;;;10.13;5.40;;;20.70;59.60;;;;;;6212676;23;20374;-86
2022/11/07 18:20:05;;;;;;;12.80;5.47;;;20.70;59.60;;;;;;6212774;23;20423;-85
2022/11/07 18:22:34;;;;;;;7.53;4.70;;;20.70;59.60;;;;;;6214031;23;20364;-86
2022/11/07 18:25:05;;;;;;;8.43;5.13;;;20.70;59.60;;;;;;6212557;23;20406;-85
2022/11/07 18:32:50;;;;;;;9.20;4.90;;;20.70;59.60;;;;;;6204905;23;20506;-85
2022/11/07 18:35:15;;;;;;;11.43;6.50;;;20.70;59.60;;;;;;6211270;23;20510;-85
2022/11/07 18:37:58;;;;;;;10.40;5.30;;;20.70;59.60;;;;;;6186350;23;20386;-85
2022/11/07 18:40:34;;;;;;;11.07;5.67;;;20.70;59.60;;;;;;6212531;23;20124;-84
2022/11/07 18:43:27;;;;;;;11.30;5.50;;;20.70;59.60;;;;;;6211845;23;20367;-87
2022/11/07 18:46:07;;;;;;;10.50;5.10;;;20.70;59.60;;;;;;6187102;23;20360;-86
2022/11/07 18:48:36;;;;;;;8.83;5.17;;;20.70;59.60;;;;;;6212632;23;20355;-88
2022/11/07 18:51:07;;;;;;;12.43;5.70;;;20.70;59.60;;;;;;6212707;23;20379;-87
2022/11/07 18:53:33;;;;;;;9.07;4.90;;;20.70;59.60;;;;;;6187196;23;20371;-87
2022/11/07 18:56:05;;;;;;;11.00;5.30;;;20.70;59.60;;;;;;6187145;23;20441;-87
2022/11/07 18:59:02;;;;;;;10.60;5.27;;;20.70;59.60;;;;;;6212400;23;20367;-88
2022/11/07 19:01:32;;;;;;;7.97;4.30;;;20.70;59.60;;;;;;6212170;23;20434;-87
2022/11/07 19:04:10;;;;;;;;;;;;;;;;;;;;;
2022/11/07 19:06:56;;;;;;;12.10;4.80;;;20.70;59.60;;;;;;6213013;23;20351;-86
2022/11/07 19:09:38;;;;;;;8.70;4.90;;;20.80;59.60;;;;;;6212048;23;20355;-87
2022/11/07 19:12:10;;;;;;;12.00;5.40;;;20.70;59.60;;;;;;6211254;23;20407;-86
2022/11/07 19:14:39;;;;;;;8.47;4.83;;;20.80;59.60;;;;;;6186053;23;20415;-86
2022/11/07 19:17:05;;;;;;;7.30;5.20;;;20.80;59.60;;;;;;6212280;23;20374;-87
2022/11/07 19:19:36;;;;;;;9.77;4.57;;;20.80;59.60;;;;;;6186447;23;20376;-87
2022/11/07 19:22:07;;;;;;;7.57;4.77;;;20.80;59.60;;;;;;6211318;23;20142;-88
2022/11/07 19:24:45;;;;;;;8.30;4.90;;;20.80;59.60;;;;;;6212131;23;20361;-88
2022/11/07 19:27:14;;;;;;;10.93;5.47;;;20.80;59.60;;;;;;6186308;23;20379;-88
2022/11/07 19:29:40;;;;;;;10.17;4.40;;;20.80;59.60;;;;;;6186528;23;20386;-88
2022/11/07 19:32:17;;;;;;;;;;;;;;;;;;;;;
2022/11/07 20:11:04;;;;;;;7.83;4.33;;;20.80;59.70;;;;;;6212067;23;20359;-87
2022/11/07 20:13:41;;;;;;;7.90;4.70;;;20.70;59.60;;;;;;6212196;23;20344;-88
2022/11/07 20:16:18;;;;;;;5.87;3.90;;;20.80;59.70;;;;;;6186571;23;20458;-88
2022/11/07 20:18:44;;;;;;;7.43;4.60;;;20.80;59.70;;;;;;6186322;23;20363;-88
2022/11/07 20:21:24;;;;;;;4.97;4.00;;;20.80;59.60;;;;;;6186808;23;20360;-88
2022/11/07 20:23:56;;;;;;;10.23;4.77;;;20.80;59.60;;;;;;6186546;23;20430;-88
2022/11/07 20:26:26;;;;;;;7.53;4.27;;;20.80;59.60;;;;;;6212164;23;20419;-88
2022/11/07 20:29:01;;;;;;;8.40;4.80;;;20.80;59.60;;;;;;6186895;23;20415;-87
2022/11/07 20:31:44;;;;;;;8.50;4.10;;;20.80;59.60;;;;;;6212540;23;20356;-87
2022/11/07 20:34:19;;;;;;;9.40;4.13;;;20.80;59.60;;;;;;6186577;23;20355;-87
2022/11/07 20:36:52;;;;;;;6.03;3.80;;;20.80;59.60;;;;;;6184696;23;20375;-87
2022/11/07 20:39:23;;;;;;;6.33;3.60;;;20.80;59.60;;;;;;6187024;23;20371;-87
2022/11/07 20:41:59;;;;;;;5.43;3.43;;;20.80;59.60;;;;;;6186124;23;20375;-87
2022/11/07 20:44:41;;;;;;;7.50;4.30;;;20.80;59.60;;;;;;6187551;23;20386;-86
2022/11/07 20:47:19;;;;;;;5.20;3.70;;;20.80;59.60;;;;;;6188248;23;20375;-87
2022/11/07 20:49:59;;;;;;;7.37;4.00;;;20.80;59.60;;;;;;6188667;23;20382;-87
2022/11/07 20:52:31;;;;;;;11.00;4.60;;;20.80;60.20;;;;;;6188505;23;20355;-87
2022/11/07 20:55:07;;;;;;;;;;;;;;;;;;;;;
2022/11/07 20:57:38;;;;;;;7.13;4.63;;;20.70;59.60;;;;;;6213297;23;20348;-87
2022/11/07 21:00:07;;;;;;;9.23;4.80;;;20.70;59.60;;;;;;6187913;23;20370;-86
2022/11/07 21:02:41;;;;;;;7.60;4.10;;;20.80;59.60;;;;;;6187416;23;20394;-87
2022/11/07 21:05:28;;;;;;;5.53;3.83;;;20.80;59.60;;;;;;6187659;23;20371;-88
2022/11/07 21:08:16;;;;;;;8.10;4.10;;;20.80;59.60;;;;;;6212832;23;20410;-87
2022/11/07 21:11:12;;;;;;;10.00;4.47;;;20.80;59.60;;;;;;6187951;23;20382;-88
2022/11/07 21:13:40;;;;;;;7.27;4.43;;;20.80;59.70;;;;;;6187483;23;20475;-88
2022/11/07 21:16:14;;;;;;;5.50;3.43;;;20.70;59.60;;;;;;6212891;23;20435;-88
2022/11/07 21:18:44;;;;;;;7.30;4.17;;;20.80;59.70;;;;;;6187472;23;20371;-88
2022/11/07 21:21:17;;;;;;;7.60;5.50;;;20.70;59.60;;;;;;6187958;23;20419;-88
2022/11/07 21:23:46;;;;;;;5.43;3.30;;;20.80;59.70;;;;;;6187605;23;20375;-88
2022/11/07 21:26:25;;;;;;;7.00;3.80;;;20.80;59.60;;;;;;6187131;23;20383;-88
2022/11/07 21:28:52;;;;;;;6.57;3.90;;;20.80;59.60;;;;;;6213322;23;20347;-88
2022/11/07 21:31:33;;;;;;;;;;;;;;;;;;;;;
2022/11/07 21:34:01;;;;;;;7.73;3.37;;;20.80;59.60;;;;;;6213363;23;20380;-88
2022/11/07 21:36:30;;;;;;;5.40;4.40;;;20.80;59.60;;;;;;6213280;23;20366;-88
2022/11/07 21:38:58;;;;;;;7.33;4.30;;;20.80;59.70;;;;;;6213388;23;20431;-87
2022/11/07 21:41:56;;;;;;;9.60;4.10;;;20.80;59.60;;;;;;6213164;23;20439;-87
2022/11/07 21:44:35;;;;;;;4.83;3.77;;;20.80;59.60;;;;;;6163282;23;20385;-87
2022/11/07 21:47:03;;;;;;;5.60;3.60;;;20.70;59.60;;;;;;6212996;23;20378;-87
2022/11/07 21:49:29;;;;;;;5.73;5.13;;;20.80;59.60;;;;;;6187445;23;20379;-88
2022/11/07 21:52:07;;;;;;;6.37;3.90;;;20.70;59.60;;;;;;6187414;23;20375;-87
2022/11/07 21:54:36;;;;;;;5.97;3.73;;;20.80;59.60;;;;;;6187614;23;20438;-88
2022/11/07 21:57:15;;;;;;;5.97;4.10;;;20.80;59.60;;;;;;6187422;23;20390;-88
2022/11/07 21:59:41;;;;;;;9.40;4.10;;;20.80;59.60;;;;;;6186859;23;20402;-86
2022/11/07 22:02:39;;;;;;;6.73;5.20;;;20.80;59.60;;;;;;6187683;23;20446;-87
2022/11/07 22:05:14;;;;;;;4.37;3.13;;;20.80;59.60;;;;;;6178171;23;20154;-88
2022/11/07 22:08:07;;;;;;;6.10;3.70;;;20.80;60.20;;;;;;6212216;23;20414;-88
2022/11/07 22:10:38;;;;;;;5.47;3.80;;;20.80;59.60;;;;;;6187551;23;20363;-88
2022/11/07 22:13:09;;;;;;;8.80;5.80;;;20.80;59.60;;;;;;6187723;23;20412;-88
2022/11/07 22:15:37;;;;;;;6.17;4.07;;;20.80;59.60;;;;;;6187516;23;20411;-88
2022/11/07 22:18:05;;;;;;;5.50;3.23;;;20.80;59.60;;;;;;6213479;23;20772;-88
2022/11/07 22:20:39;;;;;;;4.33;3.00;;;20.80;59.60;;;;;;6187369;23;20365;-87
2022/11/07 22:23:05;;;;;;;7.53;3.80;;;20.80;59.60;;;;;;6187818;23;20363;-87
2022/11/07 22:29:34;;;;;;;5.47;3.73;;;20.80;59.60;;;;;;6213150;23;20142;-88
2022/11/07 22:32:00;;;;;;;4.30;3.37;;;20.80;59.60;;;;;;6187236;23;20359;-87
2022/11/07 22:34:28;;;;;;;5.77;3.40;;;20.70;59.60;;;;;;6187290;23;20423;-89
2022/11/07 22:36:56;;;;;;;6.80;3.43;;;20.70;59.60;;;;;;6212800;23;20703;-88
2022/11/07 22:39:38;;;;;;;5.77;3.80;;;20.80;59.60;;;;;;6212840;23;20352;-88
2022/11/07 22:42:05;;;;;;;5.30;3.57;;;20.80;59.60;;;;;;6187343;23;20363;-89
2022/11/07 22:44:31;;;;;;;6.20;3.37;;;20.80;59.60;;;;;;6212935;23;20367;-88
2022/11/07 22:46:58;;;;;;;6.13;3.57;;;20.80;59.60;;;;;;6187056;23;20379;-88
2022/11/07 22:49:26;;;;;;;5.13;3.50;;;20.70;59.50;;;;;;6187494;23;20171;-87
2022/11/07 22:51:52;;;;;;;5.00;3.37;;;20.80;59.60;;;;;;6187385;23;20377;-88
2022/11/07 22:54:18;;;;;;;5.37;4.07;;;20.80;59.60;;;;;;6187263;23;20419;-88
2022/11/07 22:56:44;;;;;;;6.40;3.43;;;20.80;59.60;;;;;;6187163;23;20147;-88
2022/11/07 22:59:11;;;;;;;6.27;3.90;;;20.80;59.60;;;;;;6187124;23;20145;-88
2022/11/07 23:01:40;;;;;;;4.67;3.40;;;20.80;59.60;;;;;;6213141;23;20223;-87
2022/11/07 23:04:07;;;;;;;4.20;2.70;;;20.80;59.60;;;;;;6187261;23;20402;-87
2022/11/07 23:06:33;;;;;;;4.30;3.30;;;20.80;59.50;;;;;;6186896;23;20375;-88
2022/11/07 23:08:59;;;;;;;4.93;3.27;;;20.80;59.50;;;;;;6186716;23;20649;-88
2022/11/07 23:11:35;;;;;;;8.90;3.67;;;20.80;59.50;;;;;;6186985;23;20132;-88
2022/11/07 23:14:03;;;;;;;6.47;3.37;;;20.80;59.50;;;;;;6212748;23;20343;-88
2022/11/07 23:16:36;;;;;;;6.33;3.23;;;20.80;59.50;;;;;;6186511;23;20371;-86
2022/11/07 23:19:05;;;;;;;4.47;3.50;;;20.80;59.50;;;;;;6186575;23;20375;-87
2022/11/07 23:21:33;;;;;;;4.47;3.03;;;20.80;59.50;;;;;;6186523;23;20364;-86
2022/11/07 23:24:04;;;;;;;5.10;3.10;;;20.80;59.60;;;;;;6212712;23;20371;-86
2022/11/07 23:26:44;;;;;;;;;;;;;;;;;;;;;
2022/11/07 23:29:25;;;;;;;5.87;3.70;;;20.80;59.50;;;;;;6212280;23;20462;-86
2022/11/07 23:31:54;;;;;;;4.43;3.50;;;20.80;59.50;;;;;;6186418;23;20371;-86
2022/11/07 23:34:21;;;;;;;5.60;3.70;;;20.80;59.60;;;;;;6212082;23;20435;-86
2022/11/07 23:37:02;;;;;;;4.57;3.20;;;20.80;59.60;;;;;;6186280;23;20406;-86
2022/11/07 23:39:30;;;;;;;4.93;3.03;;;20.80;59.60;;;;;;6186699;23;20377;-86
2022/11/07 23:41:56;;;;;;;5.20;3.20;;;20.80;59.60;;;;;;6186470;23;20930;-86
2022/11/07 23:44:22;;;;;;;4.77;3.50;;;20.80;59.60;;;;;;6186306;23;20371;-86
2022/11/07 23:52:21;;;;;;;5.67;3.00;;;20.80;59.60;;;;;;6212071;23;20362;-86
